Lamont, Michigan
Current Conditions -  °F | °C
As of 7:53 PM on Monday 24 Nov 2014 (Local Time) from KGRR Reporting Station
Light Snow Light Snow  
Wind Chill: 18°   Ceiling: 1500
Heat Index: 32°   Visibility: 4mi
Dew Point: 29°   Wind: 28mph
Humidity: 88%   Direction: 240°WSW
Pressure: 29.54"   Gusts: 37mph
Location:  43.01°N, 85.91°W
Report Text: KGRR 250053Z 24024G32KT 4SM -SN BR BKN015 OVC028 00/M02 A2954 RMK AO2 PK WND 23035/0029 SLP007 P0000 T00001017 $
Loading
Personal Weather Stations






























Interactive Weather Map New forecast layout! Learn more

10-Day Weather Forecast

Advertisements
Track Severe Weather on mobile